Time;durP1;ratioP1;P1;durP2;ratioP2;P2;SDS_P1;SDS_P2;PMS_P1;PMS_P2;Temp;Humidity;BMP_temperature;BMP_pressure;BME280_temperature;BME280_humidity;BME280_pressure;Samples;Min_cycle;Max_cycle;Signal;HPM_P1;HPM_P2
2021/06/12 00:02:13;;;;;;;4.27;3.87;;;;;;;14.98;100.00;96588.91;5114338;28;20196;-83
2021/06/12 00:04:40;;;;;;;3.73;3.50;;;;;;;14.97;100.00;96597.84;5114131;28;20204;-82
2021/06/12 00:07:07;;;;;;;4.43;4.03;;;;;;;15.12;100.00;96599.72;5114593;28;20206;-82
2021/06/12 00:09:34;;;;;;;4.23;3.93;;;;;;;14.80;100.00;96614.84;5113733;28;20611;-82
2021/06/12 00:12:01;;;;;;;4.77;3.87;;;;;;;14.86;100.00;96621.25;5114254;28;20610;-82
2021/06/12 00:14:28;;;;;;;3.77;3.50;;;;;;;14.83;100.00;96621.63;5114063;28;20230;-83
2021/06/12 00:16:57;;;;;;;4.90;4.50;;;;;;;14.68;100.00;96627.66;5114076;28;20257;-82
2021/06/12 00:19:23;;;;;;;4.60;4.20;;;;;;;14.62;100.00;96622.25;5113604;28;20196;-82
2021/06/12 00:21:50;;;;;;;5.00;3.90;;;;;;;14.53;100.00;96620.66;5114284;28;20200;-83
2021/06/12 00:24:17;;;;;;;5.63;3.83;;;;;;;14.54;100.00;96619.66;5113782;28;20200;-82
2021/06/12 00:26:44;;;;;;;4.17;3.77;;;;;;;14.45;100.00;96617.03;5113639;28;20197;-82
2021/06/12 00:29:12;;;;;;;4.47;4.03;;;;;;;14.48;100.00;96611.41;5113557;28;20691;-83
2021/06/12 00:31:38;;;;;;;4.17;3.70;;;;;;;14.55;100.00;96598.34;5113747;28;20200;-82
2021/06/12 00:34:07;;;;;;;4.73;3.33;;;;;;;14.55;100.00;96600.13;5113619;28;20199;-82
2021/06/12 00:36:34;;;;;;;6.70;3.97;;;;;;;14.51;100.00;96594.38;5113962;28;20237;-83
2021/06/12 00:39:01;;;;;;;3.93;3.07;;;;;;;14.60;100.00;96595.16;5113513;28;20670;-82
2021/06/12 00:41:28;;;;;;;4.30;3.67;;;;;;;14.70;100.00;96591.28;5113902;28;20270;-82
2021/06/12 00:43:55;;;;;;;5.43;3.50;;;;;;;14.69;100.00;96588.81;5113336;28;20199;-82
2021/06/12 00:46:22;;;;;;;3.90;3.50;;;;;;;14.63;100.00;96595.63;5113231;28;20199;-82
2021/06/12 00:48:49;;;;;;;3.63;3.40;;;;;;;14.62;100.00;96593.16;5113409;28;20220;-83
2021/06/12 00:51:17;;;;;;;3.93;3.57;;;;;;;14.66;100.00;96607.69;5113696;28;20196;-82
2021/06/12 00:53:44;;;;;;;5.00;3.43;;;;;;;14.35;100.00;96612.97;5113080;28;20191;-82
2021/06/12 00:56:14;;;;;;;3.50;3.20;;;;;;;14.18;100.00;96618.31;5113346;28;20206;-83
2021/06/12 00:58:43;;;;;;;4.57;3.47;;;;;;;14.21;100.00;96611.88;5112777;28;20636;-82
2021/06/12 01:01:10;;;;;;;4.00;3.70;;;;;;;14.18;100.00;96617.50;5113168;28;20205;-83
2021/06/12 01:03:39;;;;;;;6.10;3.50;;;;;;;14.28;100.00;96600.44;5112958;28;20291;-82
2021/06/12 01:06:07;;;;;;;3.87;3.57;;;;;;;14.30;100.00;96600.25;5113111;28;20204;-83
2021/06/12 01:08:35;;;;;;;3.73;3.20;;;;;;;14.37;100.00;96598.53;5112404;28;20309;-83
2021/06/12 01:11:02;;;;;;;5.70;3.70;;;;;;;14.34;100.00;96585.69;5113056;28;20213;-83
2021/06/12 01:13:43;;;;;;;4.83;3.87;;;;;;;14.26;100.00;96585.72;5113067;28;20222;-83
2021/06/12 01:16:17;;;;;;;4.10;3.70;;;;;;;14.28;100.00;96581.91;5112780;28;20656;-83
2021/06/12 01:18:46;;;;;;;4.17;3.77;;;;;;;14.42;100.00;96571.59;5112668;28;20647;-83
2021/06/12 01:21:21;;;;;;;4.10;3.80;;;;;;;14.31;100.00;96575.47;5112876;28;20283;-83
2021/06/12 01:24:31;;;;;;;6.57;4.90;;;;;;;14.15;100.00;96576.38;5112882;28;20206;-83
2021/06/12 01:27:17;;;;;;;3.87;3.53;;;;;;;14.14;100.00;96573.91;5113804;28;20180;-83
2021/06/12 01:30:15;;;;;;;3.87;3.30;;;;;;;14.18;100.00;96564.63;5112379;28;20257;-83
2021/06/12 01:32:49;;;;;;;4.20;3.80;;;;;;;14.09;100.00;96560.38;5109656;28;20215;-82
2021/06/12 01:35:21;;;;;;;4.60;4.20;;;;;;;14.08;100.00;96566.66;5112907;28;20183;-83
2021/06/12 01:37:49;;;;;;;4.10;3.70;;;;;;;14.13;100.00;96564.31;5112382;28;20184;-82
2021/06/12 01:40:18;;;;;;;8.37;4.00;;;;;;;14.17;100.00;96563.81;5112530;28;20195;-82
2021/06/12 01:42:48;;;;;;;4.20;3.80;;;;;;;14.16;100.00;96558.69;5112355;28;20192;-83
2021/06/12 01:45:17;;;;;;;6.60;3.50;;;;;;;14.24;100.00;96553.38;5112820;28;20199;-83
2021/06/12 01:47:45;;;;;;;3.90;3.50;;;;;;;14.31;100.00;96554.31;5112277;28;20191;-82
2021/06/12 01:50:15;;;;;;;5.70;3.60;;;;;;;14.31;100.00;96549.03;5112197;28;20686;-83
2021/06/12 01:52:43;;;;;;;4.20;3.90;;;;;;;14.32;100.00;96549.84;5111813;28;20614;-82
2021/06/12 01:55:13;;;;;;;4.27;3.67;;;;;;;14.33;100.00;96554.94;5112381;28;20211;-83
2021/06/12 01:57:42;;;;;;;4.00;3.60;;;;;;;14.44;100.00;96557.22;5112190;28;20196;-83
2021/06/12 02:00:10;;;;;;;6.20;3.30;;;;;;;14.50;100.00;96559.16;5112623;28;20196;-83
2021/06/12 02:02:40;;;;;;;3.07;2.87;;;;;;;14.52;100.00;96550.25;5111884;28;20340;-83
2021/06/12 02:05:09;;;;;;;4.00;3.70;;;;;;;14.53;100.00;96557.19;5112312;28;20225;-83
2021/06/12 02:07:38;;;;;;;3.37;3.07;;;;;;;14.53;100.00;96557.19;5111843;28;20213;-82
2021/06/12 02:10:07;;;;;;;3.73;3.47;;;;;;;14.64;100.00;96554.13;5112195;28;20184;-83
2021/06/12 02:12:36;;;;;;;4.40;3.23;;;;;;;14.70;100.00;96556.88;5111858;28;20200;-82
2021/06/12 02:15:08;;;;;;;3.70;3.40;;;;;;;14.53;100.00;96570.41;5112428;28;20656;-83
2021/06/12 02:17:35;;;;;;;4.53;3.90;;;;;;;14.33;100.00;96580.56;5112537;28;20187;-82
2021/06/12 02:20:07;;;;;;;3.77;3.43;;;;;;;14.33;100.00;96580.56;5112373;28;20200;-83
2021/06/12 02:22:37;;;;;;;4.20;3.70;;;;;;;14.30;100.00;96571.16;5111962;28;20533;-83
2021/06/12 02:25:07;;;;;;;4.47;4.00;;;;;;;14.32;100.00;96566.53;5112602;28;20199;-83
2021/06/12 02:27:36;;;;;;;4.27;3.97;;;;;;;14.41;100.00;96567.28;5112102;28;20192;-83
2021/06/12 02:30:05;;;;;;;6.03;4.60;;;;;;;14.45;100.00;96556.22;5111972;28;20233;-82
2021/06/12 02:32:37;;;;;;;4.30;3.93;;;;;;;14.52;100.00;96566.94;5112186;28;20537;-82
2021/06/12 02:35:07;;;;;;;7.03;4.10;;;;;;;14.56;100.00;96560.28;5111842;28;20195;-83
2021/06/12 02:37:35;;;;;;;6.03;3.53;;;;;;;14.55;100.00;96560.44;5112285;28;20195;-82
2021/06/12 02:40:01;;;;;;;4.23;3.93;;;;;;;14.66;100.00;96560.88;5111910;28;20199;-82
2021/06/12 02:42:28;;;;;;;3.90;3.60;;;;;;;14.69;100.00;96571.13;5111845;28;20328;-83
2021/06/12 02:44:55;;;;;;;3.80;3.50;;;;;;;14.65;100.00;96568.97;5111837;28;20622;-83
2021/06/12 02:47:24;;;;;;;3.77;3.47;;;;;;;14.65;100.00;96572.47;5112181;28;20198;-82
2021/06/12 02:49:51;;;;;;;6.00;4.40;;;;;;;14.72;100.00;96569.91;5111950;28;20225;-83
2021/06/12 02:52:25;;;;;;;4.67;4.13;;;;;;;14.74;100.00;96565.28;5111876;28;20246;-83
2021/06/12 02:54:53;;;;;;;4.10;3.80;;;;;;;14.63;100.00;96565.72;5111765;28;20195;-83
2021/06/12 02:57:22;;;;;;;4.20;3.90;;;;;;;14.53;100.00;96568.56;5111817;28;20583;-83
2021/06/12 02:59:52;;;;;;;3.90;3.60;;;;;;;14.57;100.00;96567.22;5111625;28;20218;-82
2021/06/12 03:02:21;;;;;;;4.60;4.13;;;;;;;14.71;100.00;96569.09;5112163;28;20183;-83
2021/06/12 03:04:49;;;;;;;3.70;3.50;;;;;;;14.73;100.00;96569.75;5113821;28;20241;-83
2021/06/12 03:07:17;;;;;;;5.57;4.27;;;;;;;14.58;100.00;96582.13;5115736;28;20200;-83
2021/06/12 03:09:46;;;;;;;4.47;4.07;;;;;;;14.61;100.00;96580.91;5114723;28;20235;-83
2021/06/12 03:12:16;;;;;;;4.53;4.23;;;;;;;14.77;100.00;96570.22;5115479;28;20196;-83
2021/06/12 03:14:44;;;;;;;5.20;4.70;;;;;;;14.80;100.00;96577.00;5115265;28;20690;-83
2021/06/12 03:17:12;;;;;;;10.73;4.83;;;;;;;14.83;100.00;96576.63;5115345;28;20212;-83
2021/06/12 03:19:41;;;;;;;4.27;3.97;;;;;;;14.79;100.00;96580.63;5114823;28;20195;-83
2021/06/12 03:22:08;;;;;;;5.30;4.80;;;;;;;14.87;100.00;96580.56;5115629;28;20276;-83
2021/06/12 03:24:37;;;;;;;4.80;4.40;;;;;;;14.80;100.00;96575.16;5114960;28;20190;-83
2021/06/12 03:27:07;;;;;;;5.03;4.63;;;;;;;14.86;100.00;96586.84;5115211;28;20672;-83
2021/06/12 03:29:35;;;;;;;5.77;5.27;;;;;;;14.86;100.00;96592.97;5114530;28;20204;-83
2021/06/12 03:32:03;;;;;;;4.40;4.00;;;;;;;14.90;100.00;96599.56;5115086;28;20195;-82
2021/06/12 03:34:30;;;;;;;6.90;6.20;;;;;;;14.91;100.00;96606.50;5114774;28;20196;-83
2021/06/12 03:36:58;;;;;;;6.80;6.10;;;;;;;14.92;100.00;96600.19;5114936;28;20196;-83
2021/06/12 03:39:25;;;;;;;5.80;5.30;;;;;;;14.96;100.00;96598.88;5114476;28;20191;-83
2021/06/12 03:41:53;;;;;;;6.70;5.60;;;;;;;15.04;100.00;96590.03;5114836;28;20203;-83
2021/06/12 03:44:23;;;;;;;9.53;7.10;;;;;;;15.08;100.00;96588.66;5114755;28;20228;-83
2021/06/12 03:46:51;;;;;;;6.40;5.17;;;;;;;15.03;100.00;96585.72;5114603;28;20206;-83
2021/06/12 03:49:19;;;;;;;5.57;5.10;;;;;;;15.12;100.00;96597.88;5114351;28;20219;-83
2021/06/12 03:51:47;;;;;;;6.53;5.73;;;;;;;15.18;100.00;96596.34;5114939;28;20294;-83
2021/06/12 03:54:15;;;;;;;8.87;7.93;;;;;;;15.13;100.00;96606.66;5114328;28;20202;-83
2021/06/12 03:56:43;;;;;;;6.60;6.00;;;;;;;15.08;100.00;96609.84;5114544;28;20195;-83
2021/06/12 03:59:11;;;;;;;6.13;5.63;;;;;;;15.01;100.00;96614.19;5114064;28;20188;-83
2021/06/12 04:01:39;;;;;;;10.43;5.23;;;;;;;15.02;100.00;96621.13;5114457;28;20217;-83
2021/06/12 04:04:06;;;;;;;14.37;11.97;;;;;;;15.14;100.00;96630.31;5114094;28;20657;-83
2021/06/12 04:06:33;;;;;;;18.10;16.30;;;;;;;15.17;100.00;96623.81;5114330;28;20197;-83
2021/06/12 04:09:00;;;;;;;14.97;13.20;;;;;;;15.20;100.00;96626.09;5113512;28;20229;-83
2021/06/12 04:11:27;;;;;;;14.37;12.90;;;;;;;15.26;100.00;96621.94;5114202;28;20752;-83
2021/06/12 04:13:53;;;;;;;13.23;11.07;;;;;;;15.34;100.00;96617.38;5113908;28;20192;-83
2021/06/12 04:16:20;;;;;;;7.90;7.20;;;;;;;15.38;100.00;96615.22;5113795;28;20193;-83
2021/06/12 04:18:49;;;;;;;6.70;6.10;;;;;;;15.36;100.00;96619.84;5114338;28;20690;-83
2021/06/12 04:21:15;;;;;;;6.70;5.93;;;;;;;15.42;100.00;96621.78;5114832;28;20247;-84
2021/06/12 04:23:42;;;;;;;7.73;7.03;;;;;;;15.54;100.00;96627.47;5114422;28;20334;-84
2021/06/12 04:26:09;;;;;;;8.70;7.80;;;;;;;15.63;100.00;96626.38;5114695;28;20190;-83
2021/06/12 04:28:36;;;;;;;7.37;5.30;;;;;;;15.57;100.00;96640.34;5114362;28;20226;-83
2021/06/12 04:31:03;;;;;;;8.43;4.97;;;;;;;15.51;100.00;96641.06;5115088;28;20197;-83
2021/06/12 04:33:30;;;;;;;5.33;4.93;;;;;;;15.59;100.00;96651.59;5115446;28;20197;-83
2021/06/12 04:35:58;;;;;;;5.90;5.40;;;;;;;15.72;100.00;96653.63;5114248;28;20204;-83
2021/06/12 04:38:25;;;;;;;4.83;4.40;;;;;;;15.71;100.00;96660.78;5113615;28;20197;-83
2021/06/12 04:40:52;;;;;;;7.90;4.90;;;;;;;15.82;100.00;96670.91;5113460;28;20203;-82
2021/06/12 04:43:19;;;;;;;10.07;4.90;;;;;;;15.86;100.00;96677.53;5113664;28;20198;-83
2021/06/12 04:45:46;;;;;;;5.27;4.60;;;;;;;15.99;100.00;96687.47;5113970;28;20251;-82
2021/06/12 04:48:13;;;;;;;5.63;5.13;;;;;;;15.88;100.00;96698.53;5113279;28;20666;-82
2021/06/12 04:50:42;;;;;;;6.37;4.83;;;;;;;15.94;100.00;96695.16;5113700;28;20201;-82
2021/06/12 04:53:11;;;;;;;5.77;5.27;;;;;;;16.04;100.00;96701.03;5113385;28;20236;-82
2021/06/12 04:55:39;;;;;;;4.83;4.43;;;;;;;16.20;100.00;96705.31;5113376;28;20198;-83
2021/06/12 04:58:06;;;;;;;5.70;4.80;;;;;;;16.22;100.00;96705.97;5113613;28;20198;-82
2021/06/12 05:00:33;;;;;;;4.57;4.23;;;;;;;16.30;100.00;96700.56;5113496;28;20205;-82
2021/06/12 05:03:00;;;;;;;4.37;4.03;;;;;;;16.32;100.00;96711.81;5113328;28;20204;-82
2021/06/12 05:05:27;;;;;;;4.83;4.30;;;;;;;16.38;100.00;96715.53;5113243;28;20241;-83
2021/06/12 05:07:54;;;;;;;5.13;4.60;;;;;;;16.42;100.00;96719.50;5112680;28;20237;-83
2021/06/12 05:10:22;;;;;;;4.63;4.23;;;;;;;16.51;100.00;96726.34;5113116;28;20270;-83
2021/06/12 05:12:49;;;;;;;5.77;4.60;;;;;;;16.56;100.00;96739.91;5112929;28;20210;-83
2021/06/12 05:15:17;;;;;;;4.33;4.03;;;;;;;16.64;100.00;96749.56;5113082;28;20199;-83
2021/06/12 05:17:44;;;;;;;4.53;4.13;;;;;;;16.85;100.00;96759.47;5112852;28;20229;-83
2021/06/12 05:20:12;;;;;;;4.10;3.80;;;;;;;16.84;100.00;96760.47;5113446;28;20202;-83
2021/06/12 05:22:39;;;;;;;4.27;3.87;;;;;;;16.86;100.00;96777.84;5112540;28;20202;-82
2021/06/12 05:25:07;;;;;;;6.50;4.13;;;;;;;17.02;100.00;96790.09;5113095;28;20574;-83
2021/06/12 05:27:35;;;;;;;7.37;3.77;;;;;;;17.12;100.00;96800.44;5112086;28;20209;-83
2021/06/12 05:30:02;;;;;;;3.73;3.50;;;;;;;17.04;100.00;96813.81;5112740;28;20230;-83
2021/06/12 05:32:29;;;;;;;3.90;3.60;;;;;;;17.15;100.00;96809.88;5112529;28;20639;-83
2021/06/12 05:34:56;;;;;;;3.53;3.23;;;;;;;17.21;100.00;96819.72;5112886;28;20202;-83
2021/06/12 05:37:23;;;;;;;3.90;3.60;;;;;;;17.19;100.00;96822.59;5112664;28;20562;-83
2021/06/12 05:39:50;;;;;;;3.70;3.40;;;;;;;17.26;100.00;96831.44;5112483;28;20198;-83
2021/06/12 05:42:17;;;;;;;3.70;3.40;;;;;;;17.31;100.00;96837.00;5112298;28;20260;-83
2021/06/12 05:44:46;;;;;;;5.63;3.60;;;;;;;17.42;100.00;96829.56;5112443;28;20195;-83
2021/06/12 05:47:13;;;;;;;3.90;3.60;;;;;;;17.58;100.00;96832.00;5112616;28;20200;-82
2021/06/12 05:49:39;;;;;;;3.67;3.10;;;;;;;17.71;100.00;96833.97;5112214;28;20237;-82
2021/06/12 05:52:07;;;;;;;3.90;3.50;;;;;;;17.67;100.00;96846.81;5112534;28;20206;-83
2021/06/12 05:54:34;;;;;;;3.50;3.30;;;;;;;17.72;100.00;96862.19;5111953;28;20206;-83
2021/06/12 05:57:01;;;;;;;4.00;3.70;;;;;;;17.77;100.00;96859.84;5112371;28;20194;-83
2021/06/12 05:59:27;;;;;;;10.03;7.40;;;;;;;17.80;100.00;96875.41;5116201;28;20222;-83
2021/06/12 06:01:56;;;;;;;10.73;9.23;;;;;;;17.81;100.00;96872.56;5133203;28;20195;-83
2021/06/12 06:04:23;;;;;;;6.70;5.13;;;;;;;17.89;100.00;96876.94;5132817;28;20194;-83
2021/06/12 06:06:51;;;;;;;5.50;5.10;;;;;;;17.94;100.00;96884.31;5132948;28;20187;-83
2021/06/12 06:09:18;;;;;;;5.00;4.60;;;;;;;17.92;100.00;96881.88;5132537;28;20294;-84
2021/06/12 06:11:45;;;;;;;6.53;6.03;;;;;;;17.95;100.00;96896.63;5131244;28;20198;-83
2021/06/12 06:14:11;;;;;;;5.93;5.53;;;;;;;18.12;100.00;96900.69;5130521;28;20579;-83
2021/06/12 06:16:38;;;;;;;5.63;4.57;;;;;;;18.22;100.00;96906.50;5132378;28;20209;-83
2021/06/12 06:19:06;;;;;;;3.73;3.43;;;;;;;18.30;100.00;96908.22;5132585;28;20225;-83
2021/06/12 06:21:33;;;;;;;3.73;3.43;;;;;;;18.22;100.00;96918.97;5132610;28;20195;-83
2021/06/12 06:24:00;;;;;;;3.37;3.17;;;;;;;18.27;100.00;96940.53;5132398;28;20191;-83
2021/06/12 06:26:27;;;;;;;4.23;3.10;;;;;;;18.50;100.00;96970.44;5132216;28;20202;-83
2021/06/12 06:28:54;;;;;;;3.40;3.20;;;;;;;18.38;100.00;96997.72;5132606;28;20218;-83
2021/06/12 06:31:21;;;;;;;3.40;3.10;;;;;;;18.30;100.00;97023.47;5132378;28;20202;-84
2021/06/12 06:33:48;;;;;;;3.23;3.03;;;;;;;18.44;100.00;97048.38;5132557;28;20191;-85
2021/06/12 06:36:16;;;;;;;2.90;2.70;;;;;;;18.54;100.00;97048.06;5132253;28;20201;-84
2021/06/12 06:38:43;;;;;;;3.17;2.87;;;;;;;18.61;100.00;97069.44;5134446;27;20234;-83
2021/06/12 06:41:10;;;;;;;3.70;3.50;;;;;;;18.71;100.00;97078.78;5136575;27;20202;-83
2021/06/12 06:43:37;;;;;;;4.83;3.23;;;;;;;18.80;100.00;97081.31;5136257;27;20234;-84
2021/06/12 06:46:04;;;;;;;3.57;3.13;;;;;;;18.83;100.00;97087.09;5136023;27;20195;-84
2021/06/12 06:48:30;;;;;;;3.37;3.07;;;;;;;18.93;100.00;97094.75;5136130;27;20230;-84
2021/06/12 06:50:57;;;;;;;4.07;3.43;;;;;;;19.02;100.00;97082.97;5136574;27;20618;-84
2021/06/12 06:53:32;;;;;;;4.93;4.00;;;;;;;19.17;100.00;97093.53;5135957;27;20591;-84
2021/06/12 06:55:59;;;;;;;3.07;2.77;;;;;;;19.22;100.00;97096.44;5135943;27;20186;-84
2021/06/12 06:58:26;;;;;;;3.57;3.20;;;;;;;19.31;100.00;97097.13;5135930;27;20194;-85
2021/06/12 07:00:53;;;;;;;4.00;3.70;;;;;;;19.36;100.00;97092.03;5136304;27;20199;-84
2021/06/12 07:03:20;;;;;;;3.40;3.10;;;;;;;19.40;100.00;97098.66;5133692;27;20224;-83
2021/06/12 07:05:46;;;;;;;3.40;3.20;;;;;;;19.52;100.00;97099.75;5124409;27;20258;-84
2021/06/12 07:08:13;;;;;;;3.80;3.40;;;;;;;19.48;100.00;97085.16;5135567;27;20222;-84
2021/06/12 07:10:42;;;;;;;3.23;3.03;;;;;;;19.46;100.00;97076.50;5136114;27;20712;-84
2021/06/12 07:13:09;;;;;;;3.23;2.93;;;;;;;19.43;100.00;97069.75;5136020;27;20326;-83
2021/06/12 07:15:36;;;;;;;7.90;5.83;;;;;;;19.57;100.00;97057.34;5135835;27;20199;-84
2021/06/12 07:18:03;;;;;;;4.13;2.87;;;;;;;19.53;100.00;97064.06;5135708;27;20202;-84
2021/06/12 07:20:30;;;;;;;2.83;2.40;;;;;;;19.53;100.00;97050.72;5135566;27;20667;-84
2021/06/12 07:22:56;;;;;;;3.20;3.00;;;;;;;19.42;100.00;97035.28;5135761;27;20191;-84
2021/06/12 07:25:23;;;;;;;3.53;3.23;;;;;;;19.42;100.00;97053.94;5135550;27;20743;-84
2021/06/12 07:27:51;;;;;;;3.50;3.20;;;;;;;19.62;100.00;97056.72;5136122;27;20193;-84
2021/06/12 07:30:18;;;;;;;3.20;2.90;;;;;;;19.55;100.00;97043.34;5135260;27;20225;-84
2021/06/12 07:32:45;;;;;;;3.00;2.80;;;;;;;19.69;100.00;97049.63;5135603;27;20237;-84
2021/06/12 07:35:13;;;;;;;3.03;2.77;;;;;;;19.56;100.00;97030.84;5135365;27;20198;-84
2021/06/12 07:37:40;;;;;;;4.83;2.90;;;;;;;19.53;100.00;97024.06;5135482;27;20224;-84
2021/06/12 07:40:07;;;;;;;3.57;3.27;;;;;;;19.71;100.00;97028.94;5135286;27;20268;-85
2021/06/12 07:42:34;;;;;;;3.30;3.10;;;;;;;19.96;100.00;97034.56;5135706;27;20547;-85
2021/06/12 07:45:04;;;;;;;4.13;2.90;;;;;;;19.95;100.00;97011.56;5135279;27;20201;-84
2021/06/12 07:47:31;;;;;;;2.87;2.67;;;;;;;20.07;100.00;97011.84;5135436;27;20285;-84
2021/06/12 07:49:57;;;;;;;4.67;2.83;;;;;;;20.18;100.00;96993.38;5134167;27;20214;-84
2021/06/12 07:52:24;;;;;;;3.70;2.97;;;;;;;20.07;100.00;96988.63;5135248;27;20204;-84
2021/06/12 07:54:51;;;;;;;3.40;3.20;;;;;;;20.08;100.00;96984.13;5135007;27;20195;-84
2021/06/12 07:57:18;;;;;;;3.17;2.97;;;;;;;20.35;100.00;96982.34;5135280;27;20286;-84
2021/06/12 07:59:45;;;;;;;2.80;2.60;;;;;;;20.27;100.00;96962.00;5135217;27;20270;-84
2021/06/12 08:02:13;;;;;;;8.20;3.10;;;;;;;20.21;100.00;96967.31;5135248;27;20230;-84
2021/06/12 08:04:40;;;;;;;3.70;3.40;;;;;;;20.17;100.00;96978.41;5135180;27;20285;-85
2021/06/12 08:07:07;;;;;;;4.27;2.93;;;;;;;20.32;100.00;96969.38;5135279;27;20645;-84
2021/06/12 08:09:34;;;;;;;3.17;2.87;;;;;;;20.55;100.00;96945.00;5134618;27;20227;-84
2021/06/12 08:12:02;;;;;;;3.03;2.83;;;;;;;20.73;100.00;96949.75;5135385;27;20632;-85
2021/06/12 08:14:28;;;;;;;2.97;2.77;;;;;;;20.94;100.00;96941.50;5134773;27;20198;-84
2021/06/12 08:16:55;;;;;;;3.43;3.13;;;;;;;21.10;100.00;96941.06;5134717;27;20285;-84
2021/06/12 08:19:23;;;;;;;3.10;2.73;;;;;;;21.41;100.00;96931.56;5134568;27;20213;-84
2021/06/12 08:21:50;;;;;;;4.27;2.87;;;;;;;21.49;100.00;96903.75;5134917;27;20241;-85
2021/06/12 08:24:17;;;;;;;3.10;2.60;;;;;;;21.67;100.00;96882.47;5134667;27;20282;-84
2021/06/12 08:26:44;;;;;;;3.33;3.03;;;;;;;21.64;100.00;96882.09;5134669;27;20710;-85
2021/06/12 08:29:10;;;;;;;3.47;3.17;;;;;;;21.74;100.00;96890.47;5134392;27;20309;-85
2021/06/12 08:31:37;;;;;;;3.77;2.67;;;;;;;21.90;100.00;96860.53;5134587;27;20251;-84
2021/06/12 08:34:04;;;;;;;3.33;3.13;;;;;;;22.15;100.00;96849.88;5134319;27;20241;-85
2021/06/12 08:36:32;;;;;;;4.90;2.90;;;;;;;22.13;100.00;96851.91;5134415;27;20190;-84
2021/06/12 08:38:59;;;;;;;3.27;3.07;;;;;;;22.22;100.00;96837.28;5134320;27;20270;-85
2021/06/12 08:41:26;;;;;;;5.10;2.97;;;;;;;22.15;100.00;96822.31;5134071;27;20190;-84
2021/06/12 08:43:58;;;;;;;3.60;3.23;;;;;;;22.17;100.00;96846.97;5134369;27;20578;-84
2021/06/12 08:46:26;;;;;;;3.33;2.93;;;;;;;22.52;100.00;96860.72;5134263;27;20179;-85
2021/06/12 08:48:54;;;;;;;4.37;3.13;;;;;;;22.61;100.00;96834.47;5134059;27;20222;-85
2021/06/12 08:51:21;;;;;;;6.93;2.90;;;;;;;22.67;100.00;96844.31;5134036;27;20190;-85
2021/06/12 08:53:50;;;;;;;2.93;2.60;;;;;;;22.19;100.00;96815.47;5133680;27;20194;-85
2021/06/12 08:56:17;;;;;;;2.87;2.67;;;;;;;22.34;100.00;96829.34;5134288;27;20195;-85
2021/06/12 08:58:44;;;;;;;2.60;2.50;;;;;;;22.54;100.00;96819.25;5133778;27;20198;-85
2021/06/12 09:01:11;;;;;;;3.10;2.67;;;;;;;22.85;100.00;96814.00;5132931;27;20729;-85
2021/06/12 09:03:41;;;;;;;3.10;2.90;;;;;;;23.04;100.00;96798.81;5133767;27;20281;-85
2021/06/12 09:06:09;;;;;;;2.80;2.60;;;;;;;22.85;100.00;96788.03;5133950;27;20252;-85
2021/06/12 09:08:38;;;;;;;4.17;3.80;;;;;;;23.05;100.00;96817.31;5133302;27;20279;-85
2021/06/12 09:11:08;;;;;;;4.53;2.70;;;;;;;23.10;100.00;96817.47;5133583;27;20289;-85
2021/06/12 09:13:42;;;;;;;2.67;2.47;;;;;;;23.22;100.00;96820.22;5134118;27;20222;-85
2021/06/12 09:16:21;;;;;;;3.40;3.20;;;;;;;23.16;100.00;96818.44;5133727;27;20682;-85
2021/06/12 09:18:49;;;;;;;4.80;3.13;;;;;;;22.92;100.00;96804.03;5133301;27;20190;-85
2021/06/12 09:21:27;;;;;;;4.20;3.33;;;;;;;22.78;100.00;96744.41;5133714;27;20195;-85
2021/06/12 09:23:54;;;;;;;3.10;2.77;;;;;;;22.93;100.00;96712.72;5133298;27;20191;-86
2021/06/12 09:26:23;;;;;;;2.93;2.73;;;;;;;22.83;100.00;96699.00;5133855;27;20654;-85
2021/06/12 09:28:52;;;;;;;3.40;3.13;;;;;;;23.12;100.00;96744.88;5133608;27;20223;-85
2021/06/12 09:31:26;;;;;;;4.00;3.47;;;;;;;22.92;100.00;96729.84;5133215;27;20191;-85
2021/06/12 09:33:55;;;;;;;3.37;2.80;;;;;;;22.60;100.00;96693.53;5133227;27;20651;-85
2021/06/12 09:36:32;;;;;;;2.53;2.40;;;;;;;22.87;100.00;96700.19;5133686;27;20201;-85
2021/06/12 09:39:26;;;;;;;3.23;2.73;;;;;;;23.08;100.00;96695.44;5133534;27;20186;-85
2021/06/12 09:41:56;;;;;;;2.97;2.77;;;;;;;23.15;100.00;96683.56;5133304;27;20255;-84
2021/06/12 09:44:32;;;;;;;3.20;3.00;;;;;;;23.29;100.00;96686.06;5132923;27;20191;-85
2021/06/12 09:46:59;;;;;;;2.80;2.60;;;;;;;23.65;100.00;96715.41;5133193;27;20678;-85
2021/06/12 09:49:35;;;;;;;2.57;2.47;;;;;;;23.93;100.00;96704.06;5132711;27;20702;-86
2021/06/12 09:52:06;;;;;;;2.40;2.30;;;;;;;23.93;100.00;96665.63;5132922;27;20218;-85
2021/06/12 09:54:41;;;;;;;2.83;2.63;;;;;;;23.76;100.00;96641.34;5133142;27;20187;-85
2021/06/12 09:57:11;;;;;;;2.73;2.53;;;;;;;23.47;100.00;96654.59;5133380;27;20239;-86
2021/06/12 09:59:40;;;;;;;3.73;2.50;;;;;;;23.46;100.00;96661.03;5133093;27;20663;-85
2021/06/12 10:02:08;;;;;;;3.03;2.80;;;;;;;23.40;100.00;96677.22;5133057;28;20187;-85
2021/06/12 10:04:34;;;;;;;2.60;2.40;;;;;;;23.69;100.00;96667.47;5132718;28;20198;-86
2021/06/12 10:07:01;;;;;;;3.07;2.87;;;;;;;23.91;100.00;96676.63;5132923;28;20259;-85
2021/06/12 10:09:29;;;;;;;2.90;2.70;;;;;;;23.86;100.00;96691.78;5132467;28;20231;-86
2021/06/12 10:11:56;;;;;;;2.87;2.67;;;;;;;23.34;100.00;96645.94;5132797;28;20667;-86
2021/06/12 10:14:25;;;;;;;2.93;2.73;;;;;;;23.14;100.00;96676.56;5136250;27;20190;-86
2021/06/12 10:16:54;;;;;;;2.87;2.67;;;;;;;23.04;100.00;96705.78;5137042;27;20202;-86
2021/06/12 10:19:22;;;;;;;2.83;2.63;;;;;;;22.86;100.00;96698.56;5136830;27;20186;-86
2021/06/12 10:21:49;;;;;;;2.70;2.43;;;;;;;22.80;100.00;96683.38;5136789;27;20194;-86
2021/06/12 10:24:15;;;;;;;2.60;2.40;;;;;;;22.73;100.00;96661.22;5136693;27;20586;-84
2021/06/12 10:26:43;;;;;;;2.87;2.63;;;;;;;22.58;100.00;96693.72;5137352;27;20570;-85
2021/06/12 10:29:13;;;;;;;2.97;2.70;;;;;;;22.58;100.00;96715.16;5136886;27;20571;-86
2021/06/12 10:31:43;;;;;;;3.00;2.80;;;;;;;22.63;100.00;96733.25;5137276;27;20201;-87
2021/06/12 10:34:11;;;;;;;4.37;2.93;;;;;;;22.59;100.00;96722.19;5136918;27;20187;-86
2021/06/12 10:36:41;;;;;;;3.03;2.80;;;;;;;22.50;100.00;96742.25;5136997;27;20659;-85
2021/06/12 10:39:26;;;;;;;3.17;2.97;;;;;;;22.60;100.00;96755.13;5136611;27;20187;-85
2021/06/12 10:42:12;;;;;;;2.83;2.63;;;;;;;22.47;100.00;96710.56;5136504;27;20212;-86
2021/06/12 10:44:39;;;;;;;2.70;2.50;;;;;;;22.43;100.00;96730.78;5136703;27;20209;-85
2021/06/12 10:47:08;;;;;;;3.73;2.80;;;;;;;22.39;100.00;96719.72;5136927;27;20587;-86
2021/06/12 10:49:35;;;;;;;4.80;3.10;;;;;;;22.44;100.00;96733.25;5136042;27;20271;-86
2021/06/12 10:52:03;;;;;;;4.23;2.97;;;;;;;22.10;100.00;96753.34;5136389;27;20577;-86
2021/06/12 10:54:33;;;;;;;3.53;3.20;;;;;;;22.02;100.00;96777.69;5136237;27;20251;-86
2021/06/12 10:57:03;;;;;;;3.37;3.07;;;;;;;22.07;100.00;96810.81;5136699;27;20234;-85
2021/06/12 10:59:45;;;;;;;3.33;2.73;;;;;;;21.99;100.00;96773.56;5136538;27;20222;-87
2021/06/12 11:02:19;;;;;;;3.73;3.13;;;;;;;21.80;100.00;96763.88;5136236;27;20191;-86
2021/06/12 11:04:52;;;;;;;3.80;3.43;;;;;;;21.65;100.00;96766.00;5136424;27;20541;-86
2021/06/12 11:07:27;;;;;;;3.27;3.07;;;;;;;21.46;100.00;96783.84;5136119;27;20203;-85
2021/06/12 11:10:16;;;;;;;6.00;3.23;;;;;;;21.40;100.00;96838.97;5135661;27;20218;-86
2021/06/12 11:12:43;;;;;;;3.60;3.40;;;;;;;21.34;100.00;96910.19;5136096;27;20281;-86
2021/06/12 11:15:13;;;;;;;4.93;3.90;;;;;;;21.08;100.00;96959.16;5136116;27;20678;-86
2021/06/12 11:17:43;;;;;;;4.13;3.73;;;;;;;21.27;100.00;96988.75;5136310;27;20571;-87
2021/06/12 11:20:30;;;;;;;3.50;3.27;;;;;;;21.13;100.00;96980.75;5136392;27;20557;-87
2021/06/12 11:23:03;;;;;;;4.33;3.93;;;;;;;20.88;100.00;96996.56;5136091;27;20195;-86
2021/06/12 11:25:40;;;;;;;3.30;3.10;;;;;;;20.66;100.00;97020.00;5134969;27;20183;-87
2021/06/12 11:28:27;;;;;;;4.37;3.57;;;;;;;20.66;100.00;97044.03;5135840;27;20185;-86
2021/06/12 11:31:15;;;;;;;4.50;3.07;;;;;;;20.42;100.00;97060.59;5135983;27;20679;-87
2021/06/12 11:34:24;;;;;;;4.17;3.77;;;;;;;20.21;100.00;97085.59;5135771;27;20231;-87